Sertaozinho, Brazil
Current Conditions -  °F | °C
As of 2:00 PM on Wednesday 28 Jan 2015 (Local Time) from SBRP Reporting Station
Scattered Clouds Scattered Clouds  
Wind Chill: 84°   Ceiling: Unl
Heat Index: 86°   Visibility: 6mi
Dew Point: 64°   Wind: 6mph
Humidity: 51%   Direction: 290°WNW
Pressure: 30"   Gusts: NA
Location:  21.14°S, 47.99°W
Report Text: SBRP 281600Z 29005KT 9999 SCT030 29/18 Q1016
Loading
Personal Weather Stations






























Interactive Weather Map New forecast layout! Learn more

10-Day Weather Forecast

Advertisements
Track Severe Weather on mobile